Detall de PIREP

Printer-friendly versionPDF version

[2009/02/22 16:22:00]
Flight IATA:CT1001
Pilot Number:026
Company ICAO:CAT
Aircraft Type:F50/A
PAX:50
Departing Airport: LICJ
Destination Airport: LICG
Alternate Airport:LICJ
Online: VATSIM
Route:TRP6A/25 TRP L869 MEGAN M740 ROBET
Flight Level:FL170
No Slew and time accel
No pause
Crash detect
Detect pilot in Cockpit between each 30 and 45 minutes
16:22 Zero fuel Weight: 42342 Lbs, Fuel Weight: 2500 Lbs
16:22 VATSIM:LICJ 221550Z VRB02KT 9999 FEW025 BKN070 11/06 Q1018
16:22 VATSIM:LICG 221555Z 30015KT 9999 SCT020 12/07 Q1019 RMK SCT WIND WIND THR08 30009G24KT KT WIND THR21 30011KT BLU
16:22 VOICE CATALONIAN / MEDITERRANEAN ODYSSEY
16:25 Parking Brakes off
16:30 Take-off
16:30 Take off Weight: 44793 Lbs
16:30 Wind: 299º @ 008 Knots Heading: 249º
16:30 POS N38º 10´ 46´´ E013º 06´ 04´´
16:31 Gear Up: 143 Knots
16:31 Flaps:2 at 143 Knots
16:31 Flaps:1 at 138 Knots
16:
32 Flaps:0 at 157 Knots
16:42 TOC
16:42 Fuel Weight: 2109 Lb
16:46 Wind:300º@039 Knots Heading: 200º Ground Speed: 268 Knots Altitude 17125 ft
16:50 TOD
16:50 Fuel Weight: 1891 Lb
17:01 Wind:300º@031 Knots Heading: 245º Ground Speed: 157 Knots Altitude 5987 ft
17:10 Gear Down: 161 Knots
17:10 Flaps:1 at 162 Knots
17:11 Flaps:2 at 140 Knots
17:12 Flaps:3 at 118 Knots
17:13 Flaps:4 at 124 Knots
17:13 TouchDown:Rate -293 ft/min Speed: 99 Knots
17:13 VATSIM:LICG 221655Z 30013G23KT 9999 BKN020 12/09 Q1019 RMK BKN WIND THR08 30010G20KT WIND THR21 31011KT WHT
17:14 Land
17:14 Wind:299º@013 Knots
17:14 Heading: 251º
17:14 Flight Duration: 00:43
17:14 Landing Weight: 44033 Lbs
17:14 POS N36º 48´ 59´´ E011º 58´ 07´´
17:16 Parking brakes on
17:16 Block to Block Duration: 00:51
17:16 Final Fuel: 1673 Lbls
17:16 Spent Fuel: 826 Lbls
17:16 Flight Length: 141 NM
1
7:16 TOD Land Length: 70 NM

Exportar CSV

Powered by Drupal - Modified by Danger4k